sensor_id;sensor_type;location;lat;lon;timestamp;temperature;humidity
5962;DHT22;3007;50.770;0.250;2022-10-20T00:01:00;16.90;99.90
5962;DHT22;3007;50.770;0.250;2022-10-20T00:03:28;16.90;99.90
5962;DHT22;3007;50.770;0.250;2022-10-20T00:06:05;16.90;99.90
5962;DHT22;3007;50.770;0.250;2022-10-20T00:08:32;16.90;99.90
5962;DHT22;3007;50.770;0.250;2022-10-20T00:11:00;16.90;99.90
5962;DHT22;3007;50.770;0.250;2022-10-20T00:13:28;16.90;99.90
5962;DHT22;3007;50.770;0.250;2022-10-20T00:15:55;16.90;99.90
5962;DHT22;3007;50.770;0.250;2022-10-20T00:18:23;16.90;99.90
5962;DHT22;3007;50.770;0.250;2022-10-20T00:20:50;16.90;99.90
5962;DHT22;3007;50.770;0.250;2022-10-20T00:23:17;16.90;99.90
5962;DHT22;3007;50.770;0.250;2022-10-20T00:25:44;16.90;99.90
5962;DHT22;3007;50.770;0.250;2022-10-20T00:28:13;16.90;99.90
5962;DHT22;3007;50.770;0.250;2022-10-20T00:30:40;16.90;99.90
5962;DHT22;3007;50.770;0.250;2022-10-20T00:33:07;16.90;99.90
5962;DHT22;3007;50.770;0.250;2022-10-20T00:35:36;16.90;99.90
5962;DHT22;3007;50.770;0.250;2022-10-20T00:38:03;16.90;99.90
5962;DHT22;3007;50.770;0.250;2022-10-20T00:40:30;16.90;99.90
5962;DHT22;3007;50.770;0.250;2022-10-20T00:42:57;16.90;99.90
5962;DHT22;3007;50.770;0.250;2022-10-20T00:45:25;16.90;99.90
5962;DHT22;3007;50.770;0.250;2022-10-20T00:47:54;16.90;99.90
5962;DHT22;3007;50.770;0.250;2022-10-20T00:50:25;16.90;99.90
5962;DHT22;3007;50.770;0.250;2022-10-20T00:52:53;16.90;99.90
5962;DHT22;3007;50.770;0.250;2022-10-20T00:55:23;16.90;99.90
5962;DHT22;3007;50.770;0.250;2022-10-20T00:57:51;16.90;99.90
5962;DHT22;3007;50.770;0.250;2022-10-20T01:00:18;16.90;99.90
5962;DHT22;3007;50.770;0.250;2022-10-20T01:02:48;16.90;99.90
5962;DHT22;3007;50.770;0.250;2022-10-20T01:05:15;16.90;99.90
5962;DHT22;3007;50.770;0.250;2022-10-20T01:07:42;16.90;99.90
5962;DHT22;3007;50.770;0.250;2022-10-20T01:10:09;16.90;99.90
5962;DHT22;3007;50.770;0.250;2022-10-20T01:12:43;16.90;99.90
5962;DHT22;3007;50.770;0.250;2022-10-20T01:15:17;16.90;99.90
5962;DHT22;3007;50.770;0.250;2022-10-20T01:17:54;16.90;99.90
5962;DHT22;3007;50.770;0.250;2022-10-20T01:20:50;16.80;99.90
5962;DHT22;3007;50.770;0.250;2022-10-20T01:23:53;16.80;99.90
5962;DHT22;3007;50.770;0.250;2022-10-20T01:27:13;16.80;99.90
5962;DHT22;3007;50.770;0.250;2022-10-20T01:29:43;16.70;99.90
5962;DHT22;3007;50.770;0.250;2022-10-20T01:32:18;16.80;99.90
5962;DHT22;3007;50.770;0.250;2022-10-20T01:34:55;16.70;99.90
5962;DHT22;3007;50.770;0.250;2022-10-20T01:37:29;16.60;99.90
5962;DHT22;3007;50.770;0.250;2022-10-20T01:40:03;16.60;99.90
5962;DHT22;3007;50.770;0.250;2022-10-20T01:42:35;16.60;99.90
5962;DHT22;3007;50.770;0.250;2022-10-20T01:45:05;16.60;99.90
5962;DHT22;3007;50.770;0.250;2022-10-20T01:47:34;16.50;99.90
5962;DHT22;3007;50.770;0.250;2022-10-20T01:50:02;16.50;99.90
5962;DHT22;3007;50.770;0.250;2022-10-20T01:52:31;16.50;99.90
5962;DHT22;3007;50.770;0.250;2022-10-20T01:54:58;16.50;99.90
5962;DHT22;3007;50.770;0.250;2022-10-20T01:57:36;16.50;99.90
5962;DHT22;3007;50.770;0.250;2022-10-20T02:00:11;16.50;99.90
5962;DHT22;3007;50.770;0.250;2022-10-20T02:03:03;16.40;99.90
5962;DHT22;3007;50.770;0.250;2022-10-20T02:05:51;16.40;99.90
5962;DHT22;3007;50.770;0.250;2022-10-20T02:08:30;16.40;99.90
5962;DHT22;3007;50.770;0.250;2022-10-20T02:11:02;16.40;99.90
5962;DHT22;3007;50.770;0.250;2022-10-20T02:13:35;16.40;99.90
5962;DHT22;3007;50.770;0.250;2022-10-20T02:16:08;16.40;99.90
5962;DHT22;3007;50.770;0.250;2022-10-20T02:18:39;16.40;99.90
5962;DHT22;3007;50.770;0.250;2022-10-20T02:21:07;16.40;99.90
5962;DHT22;3007;50.770;0.250;2022-10-20T02:23:37;16.30;99.90
5962;DHT22;3007;50.770;0.250;2022-10-20T02:26:06;16.30;99.90
5962;DHT22;3007;50.770;0.250;2022-10-20T02:28:38;16.30;99.90
5962;DHT22;3007;50.770;0.250;2022-10-20T02:31:07;16.30;99.90
5962;DHT22;3007;50.770;0.250;2022-10-20T02:33:35;16.30;99.90
5962;DHT22;3007;50.770;0.250;2022-10-20T02:36:04;16.30;99.90
5962;DHT22;3007;50.770;0.250;2022-10-20T02:38:34;16.30;99.90
5962;DHT22;3007;50.770;0.250;2022-10-20T02:41:01;16.30;99.90
5962;DHT22;3007;50.770;0.250;2022-10-20T02:43:28;16.30;99.90
5962;DHT22;3007;50.770;0.250;2022-10-20T02:45:56;16.30;99.90
5962;DHT22;3007;50.770;0.250;2022-10-20T02:48:23;16.40;99.90
5962;DHT22;3007;50.770;0.250;2022-10-20T02:50:50;16.40;99.90
5962;DHT22;3007;50.770;0.250;2022-10-20T02:53:17;16.40;99.90
5962;DHT22;3007;50.770;0.250;2022-10-20T02:55:44;16.40;99.90
5962;DHT22;3007;50.770;0.250;2022-10-20T02:58:11;16.50;99.90
5962;DHT22;3007;50.770;0.250;2022-10-20T03:00:38;16.50;99.90
5962;DHT22;3007;50.770;0.250;2022-10-20T03:03:06;16.60;99.90
5962;DHT22;3007;50.770;0.250;2022-10-20T03:05:38;16.60;99.90
5962;DHT22;3007;50.770;0.250;2022-10-20T03:08:04;16.70;99.90
5962;DHT22;3007;50.770;0.250;2022-10-20T03:10:31;16.70;99.90
5962;DHT22;3007;50.770;0.250;2022-10-20T03:12:59;16.80;99.90
5962;DHT22;3007;50.770;0.250;2022-10-20T03:15:26;16.90;99.90
5962;DHT22;3007;50.770;0.250;2022-10-20T03:17:53;16.90;99.90
5962;DHT22;3007;50.770;0.250;2022-10-20T03:20:21;16.90;99.90
5962;DHT22;3007;50.770;0.250;2022-10-20T03:22:48;16.90;99.90
5962;DHT22;3007;50.770;0.250;2022-10-20T03:25:15;16.90;99.90
5962;DHT22;3007;50.770;0.250;2022-10-20T03:27:42;16.90;99.90
5962;DHT22;3007;50.770;0.250;2022-10-20T03:30:09;16.90;99.90
5962;DHT22;3007;50.770;0.250;2022-10-20T03:32:36;16.90;99.90
5962;DHT22;3007;50.770;0.250;2022-10-20T03:35:03;17.00;99.90
5962;DHT22;3007;50.770;0.250;2022-10-20T03:37:32;16.90;99.90
5962;DHT22;3007;50.770;0.250;2022-10-20T03:40:00;16.90;99.90
5962;DHT22;3007;50.770;0.250;2022-10-20T03:42:26;16.90;99.90
5962;DHT22;3007;50.770;0.250;2022-10-20T03:44:53;16.90;99.90
5962;DHT22;3007;50.770;0.250;2022-10-20T03:47:20;17.00;99.90
5962;DHT22;3007;50.770;0.250;2022-10-20T03:49:47;17.00;99.90
5962;DHT22;3007;50.770;0.250;2022-10-20T03:52:14;17.00;99.90
5962;DHT22;3007;50.770;0.250;2022-10-20T03:54:42;17.00;99.90
5962;DHT22;3007;50.770;0.250;2022-10-20T03:57:09;17.00;99.90
5962;DHT22;3007;50.770;0.250;2022-10-20T03:59:36;17.00;99.90
5962;DHT22;3007;50.770;0.250;2022-10-20T04:02:03;17.00;99.90
5962;DHT22;3007;50.770;0.250;2022-10-20T04:04:30;16.90;99.90
5962;DHT22;3007;50.770;0.250;2022-10-20T04:06:56;16.90;99.90
5962;DHT22;3007;50.770;0.250;2022-10-20T04:09:23;16.90;99.90
5962;DHT22;3007;50.770;0.250;2022-10-20T04:11:51;16.90;99.90
5962;DHT22;3007;50.770;0.250;2022-10-20T04:14:18;16.90;99.90
5962;DHT22;3007;50.770;0.250;2022-10-20T04:16:45;16.90;99.90
5962;DHT22;3007;50.770;0.250;2022-10-20T04:19:12;16.90;99.90
5962;DHT22;3007;50.770;0.250;2022-10-20T04:21:39;16.90;99.90
5962;DHT22;3007;50.770;0.250;2022-10-20T04:24:06;16.90;99.90
5962;DHT22;3007;50.770;0.250;2022-10-20T04:26:33;16.80;99.90
5962;DHT22;3007;50.770;0.250;2022-10-20T04:29:01;16.90;99.90
5962;DHT22;3007;50.770;0.250;2022-10-20T04:31:28;16.80;99.90
5962;DHT22;3007;50.770;0.250;2022-10-20T04:33:54;16.80;99.90
5962;DHT22;3007;50.770;0.250;2022-10-20T04:36:21;16.80;99.90
5962;DHT22;3007;50.770;0.250;2022-10-20T04:38:49;16.90;99.90
5962;DHT22;3007;50.770;0.250;2022-10-20T04:41:15;16.90;99.90
5962;DHT22;3007;50.770;0.250;2022-10-20T04:43:42;16.90;99.90
5962;DHT22;3007;50.770;0.250;2022-10-20T04:46:11;16.90;99.90
5962;DHT22;3007;50.770;0.250;2022-10-20T04:48:41;17.00;99.90
5962;DHT22;3007;50.770;0.250;2022-10-20T04:51:10;17.00;99.90
5962;DHT22;3007;50.770;0.250;2022-10-20T04:53:37;17.00;99.90
5962;DHT22;3007;50.770;0.250;2022-10-20T04:56:06;17.10;99.90
5962;DHT22;3007;50.770;0.250;2022-10-20T04:58:33;17.10;99.90
5962;DHT22;3007;50.770;0.250;2022-10-20T05:01:02;17.10;99.90
5962;DHT22;3007;50.770;0.250;2022-10-20T05:03:30;17.20;99.90
5962;DHT22;3007;50.770;0.250;2022-10-20T05:06:08;17.20;99.90
5962;DHT22;3007;50.770;0.250;2022-10-20T05:08:35;17.20;99.90
5962;DHT22;3007;50.770;0.250;2022-10-20T05:11:02;17.20;99.90
5962;DHT22;3007;50.770;0.250;2022-10-20T05:13:29;17.30;99.90
5962;DHT22;3007;50.770;0.250;2022-10-20T05:15:55;17.30;99.90
5962;DHT22;3007;50.770;0.250;2022-10-20T05:18:22;17.20;99.90
5962;DHT22;3007;50.770;0.250;2022-10-20T05:20:51;17.30;99.90
5962;DHT22;3007;50.770;0.250;2022-10-20T05:23:17;17.20;99.90
5962;DHT22;3007;50.770;0.250;2022-10-20T05:25:44;17.20;99.90
5962;DHT22;3007;50.770;0.250;2022-10-20T05:28:11;17.20;99.90
5962;DHT22;3007;50.770;0.250;2022-10-20T05:30:38;17.20;99.90
5962;DHT22;3007;50.770;0.250;2022-10-20T05:33:05;17.20;99.90
5962;DHT22;3007;50.770;0.250;2022-10-20T05:35:32;17.20;99.90
5962;DHT22;3007;50.770;0.250;2022-10-20T05:38:00;17.20;99.90
5962;DHT22;3007;50.770;0.250;2022-10-20T05:40:27;17.20;99.90
5962;DHT22;3007;50.770;0.250;2022-10-20T05:42:54;17.20;99.90
5962;DHT22;3007;50.770;0.250;2022-10-20T05:45:22;17.20;99.90
5962;DHT22;3007;50.770;0.250;2022-10-20T05:47:48;17.20;99.90
5962;DHT22;3007;50.770;0.250;2022-10-20T05:50:15;17.20;99.90
5962;DHT22;3007;50.770;0.250;2022-10-20T05:52:42;17.10;99.90
5962;DHT22;3007;50.770;0.250;2022-10-20T05:55:11;17.10;99.90
5962;DHT22;3007;50.770;0.250;2022-10-20T05:57:37;17.10;99.90
5962;DHT22;3007;50.770;0.250;2022-10-20T06:00:05;17.10;99.90
5962;DHT22;3007;50.770;0.250;2022-10-20T06:02:32;17.10;99.90
5962;DHT22;3007;50.770;0.250;2022-10-20T06:04:59;17.10;99.90
5962;DHT22;3007;50.770;0.250;2022-10-20T06:07:26;17.10;99.90
5962;DHT22;3007;50.770;0.250;2022-10-20T06:09:53;17.10;99.90
5962;DHT22;3007;50.770;0.250;2022-10-20T06:12:21;17.10;99.90
5962;DHT22;3007;50.770;0.250;2022-10-20T06:14:48;17.10;99.90
5962;DHT22;3007;50.770;0.250;2022-10-20T06:17:15;17.00;99.90
5962;DHT22;3007;50.770;0.250;2022-10-20T06:19:42;17.10;99.90
5962;DHT22;3007;50.770;0.250;2022-10-20T06:22:09;17.00;99.90
5962;DHT22;3007;50.770;0.250;2022-10-20T06:24:36;17.10;99.90
5962;DHT22;3007;50.770;0.250;2022-10-20T06:27:02;17.00;99.90
5962;DHT22;3007;50.770;0.250;2022-10-20T06:29:31;17.00;99.90
5962;DHT22;3007;50.770;0.250;2022-10-20T06:31:57;17.00;99.90
5962;DHT22;3007;50.770;0.250;2022-10-20T06:34:24;16.90;99.90
5962;DHT22;3007;50.770;0.250;2022-10-20T06:36:51;16.90;99.90
5962;DHT22;3007;50.770;0.250;2022-10-20T06:39:20;16.90;99.90
5962;DHT22;3007;50.770;0.250;2022-10-20T06:41:48;16.90;99.90
5962;DHT22;3007;50.770;0.250;2022-10-20T06:44:16;16.80;99.90
5962;DHT22;3007;50.770;0.250;2022-10-20T06:46:44;16.80;99.90
5962;DHT22;3007;50.770;0.250;2022-10-20T06:49:11;16.80;99.90
5962;DHT22;3007;50.770;0.250;2022-10-20T06:51:39;16.80;99.90
5962;DHT22;3007;50.770;0.250;2022-10-20T06:54:06;16.80;99.90
5962;DHT22;3007;50.770;0.250;2022-10-20T06:56:34;16.80;99.90
5962;DHT22;3007;50.770;0.250;2022-10-20T06:59:02;16.80;99.90
5962;DHT22;3007;50.770;0.250;2022-10-20T07:01:30;16.80;99.90
5962;DHT22;3007;50.770;0.250;2022-10-20T07:04:00;16.80;99.90
5962;DHT22;3007;50.770;0.250;2022-10-20T07:06:30;16.80;99.90
5962;DHT22;3007;50.770;0.250;2022-10-20T07:08:58;16.80;99.90
5962;DHT22;3007;50.770;0.250;2022-10-20T07:11:27;16.80;99.90
5962;DHT22;3007;50.770;0.250;2022-10-20T07:13:54;16.80;99.90
5962;DHT22;3007;50.770;0.250;2022-10-20T07:16:25;16.80;99.90
5962;DHT22;3007;50.770;0.250;2022-10-20T07:18:52;16.70;99.90
5962;DHT22;3007;50.770;0.250;2022-10-20T07:21:22;16.70;99.90
5962;DHT22;3007;50.770;0.250;2022-10-20T07:23:49;16.80;99.90
5962;DHT22;3007;50.770;0.250;2022-10-20T07:26:18;16.80;99.90
5962;DHT22;3007;50.770;0.250;2022-10-20T07:28:47;16.70;99.90
5962;DHT22;3007;50.770;0.250;2022-10-20T07:31:16;16.80;99.90
5962;DHT22;3007;50.770;0.250;2022-10-20T07:33:43;16.80;99.90
5962;DHT22;3007;50.770;0.250;2022-10-20T07:36:12;16.80;99.90
5962;DHT22;3007;50.770;0.250;2022-10-20T07:38:41;16.80;99.90
5962;DHT22;3007;50.770;0.250;2022-10-20T07:41:08;16.80;99.90
5962;DHT22;3007;50.770;0.250;2022-10-20T07:43:36;16.80;99.90
5962;DHT22;3007;50.770;0.250;2022-10-20T07:46:03;16.80;99.90
5962;DHT22;3007;50.770;0.250;2022-10-20T07:48:30;16.90;99.90
5962;DHT22;3007;50.770;0.250;2022-10-20T07:51:13;16.90;99.90
5962;DHT22;3007;50.770;0.250;2022-10-20T07:53:41;16.90;99.90
5962;DHT22;3007;50.770;0.250;2022-10-20T07:56:09;16.90;99.90
5962;DHT22;3007;50.770;0.250;2022-10-20T07:58:36;17.00;99.90
5962;DHT22;3007;50.770;0.250;2022-10-20T08:01:04;17.00;99.90
5962;DHT22;3007;50.770;0.250;2022-10-20T08:03:31;17.20;99.90
5962;DHT22;3007;50.770;0.250;2022-10-20T08:05:58;17.20;99.90
5962;DHT22;3007;50.770;0.250;2022-10-20T08:08:25;17.20;99.90
5962;DHT22;3007;50.770;0.250;2022-10-20T08:10:53;17.30;99.90
5962;DHT22;3007;50.770;0.250;2022-10-20T08:13:22;17.30;99.90
5962;DHT22;3007;50.770;0.250;2022-10-20T08:15:49;17.40;99.90
5962;DHT22;3007;50.770;0.250;2022-10-20T08:18:16;17.40;99.90
5962;DHT22;3007;50.770;0.250;2022-10-20T08:20:43;17.40;99.90
5962;DHT22;3007;50.770;0.250;2022-10-20T08:23:10;17.40;99.90
5962;DHT22;3007;50.770;0.250;2022-10-20T08:25:37;17.40;99.90
5962;DHT22;3007;50.770;0.250;2022-10-20T08:28:06;17.50;99.90
5962;DHT22;3007;50.770;0.250;2022-10-20T08:30:33;17.50;99.90
5962;DHT22;3007;50.770;0.250;2022-10-20T08:33:00;17.60;99.90
5962;DHT22;3007;50.770;0.250;2022-10-20T08:35:27;17.60;99.90
5962;DHT22;3007;50.770;0.250;2022-10-20T08:37:54;17.60;99.90
5962;DHT22;3007;50.770;0.250;2022-10-20T08:40:23;17.70;99.90
5962;DHT22;3007;50.770;0.250;2022-10-20T08:42:51;17.70;99.90
5962;DHT22;3007;50.770;0.250;2022-10-20T08:45:22;17.70;99.90
5962;DHT22;3007;50.770;0.250;2022-10-20T08:47:51;17.80;99.90
5962;DHT22;3007;50.770;0.250;2022-10-20T08:50:19;17.70;99.90
5962;DHT22;3007;50.770;0.250;2022-10-20T08:52:52;17.80;99.90
5962;DHT22;3007;50.770;0.250;2022-10-20T08:55:25;17.80;99.90
5962;DHT22;3007;50.770;0.250;2022-10-20T08:57:59;17.90;99.90
5962;DHT22;3007;50.770;0.250;2022-10-20T09:00:29;17.90;99.90
5962;DHT22;3007;50.770;0.250;2022-10-20T09:03:01;17.90;99.90
5962;DHT22;3007;50.770;0.250;2022-10-20T09:05:30;17.80;99.90
5962;DHT22;3007;50.770;0.250;2022-10-20T09:07:59;17.80;99.90
5962;DHT22;3007;50.770;0.250;2022-10-20T09:10:30;17.70;99.90
5962;DHT22;3007;50.770;0.250;2022-10-20T09:12:59;17.50;99.90
5962;DHT22;3007;50.770;0.250;2022-10-20T09:15:28;17.40;99.90
5962;DHT22;3007;50.770;0.250;2022-10-20T09:17:58;17.20;99.90
5962;DHT22;3007;50.770;0.250;2022-10-20T09:20:29;17.20;99.90
5962;DHT22;3007;50.770;0.250;2022-10-20T09:22:57;17.10;99.90
5962;DHT22;3007;50.770;0.250;2022-10-20T09:25:25;17.10;99.90
5962;DHT22;3007;50.770;0.250;2022-10-20T09:27:53;17.10;99.90
5962;DHT22;3007;50.770;0.250;2022-10-20T09:30:23;17.20;99.90
5962;DHT22;3007;50.770;0.250;2022-10-20T09:32:52;17.30;99.90
5962;DHT22;3007;50.770;0.250;2022-10-20T09:35:22;17.40;99.90
5962;DHT22;3007;50.770;0.250;2022-10-20T09:37:53;17.60;99.90
5962;DHT22;3007;50.770;0.250;2022-10-20T09:40:22;17.80;99.90
5962;DHT22;3007;50.770;0.250;2022-10-20T09:42:52;17.90;99.90
5962;DHT22;3007;50.770;0.250;2022-10-20T09:45:21;18.00;99.90
5962;DHT22;3007;50.770;0.250;2022-10-20T09:47:52;17.90;99.90
5962;DHT22;3007;50.770;0.250;2022-10-20T09:50:24;17.90;99.90
5962;DHT22;3007;50.770;0.250;2022-10-20T09:52:52;17.90;99.90
5962;DHT22;3007;50.770;0.250;2022-10-20T09:55:26;17.90;99.90
5962;DHT22;3007;50.770;0.250;2022-10-20T09:57:55;17.90;99.90
5962;DHT22;3007;50.770;0.250;2022-10-20T10:00:25;18.00;99.90
5962;DHT22;3007;50.770;0.250;2022-10-20T10:03:14;18.10;99.90
5962;DHT22;3007;50.770;0.250;2022-10-20T10:05:47;18.10;99.90
5962;DHT22;3007;50.770;0.250;2022-10-20T10:08:15;18.20;99.90
5962;DHT22;3007;50.770;0.250;2022-10-20T10:10:43;18.40;99.90
5962;DHT22;3007;50.770;0.250;2022-10-20T10:13:25;18.50;99.90
5962;DHT22;3007;50.770;0.250;2022-10-20T10:16:02;18.60;99.90
5962;DHT22;3007;50.770;0.250;2022-10-20T10:18:31;18.80;99.90
5962;DHT22;3007;50.770;0.250;2022-10-20T10:21:04;18.90;99.90
5962;DHT22;3007;50.770;0.250;2022-10-20T10:23:33;19.00;99.90
5962;DHT22;3007;50.770;0.250;2022-10-20T10:26:02;19.00;99.90
5962;DHT22;3007;50.770;0.250;2022-10-20T10:28:36;19.00;99.90
5962;DHT22;3007;50.770;0.250;2022-10-20T10:31:06;19.00;99.90
5962;DHT22;3007;50.770;0.250;2022-10-20T10:33:35;18.90;99.90
5962;DHT22;3007;50.770;0.250;2022-10-20T10:36:05;18.80;99.90
5962;DHT22;3007;50.770;0.250;2022-10-20T10:38:36;18.80;99.90
5962;DHT22;3007;50.770;0.250;2022-10-20T10:41:11;18.70;99.90
5962;DHT22;3007;50.770;0.250;2022-10-20T10:43:47;18.60;99.90
5962;DHT22;3007;50.770;0.250;2022-10-20T10:46:18;18.60;99.90
5962;DHT22;3007;50.770;0.250;2022-10-20T10:49:09;18.60;99.90
5962;DHT22;3007;50.770;0.250;2022-10-20T10:51:51;18.60;99.90
5962;DHT22;3007;50.770;0.250;2022-10-20T10:54:33;18.80;99.90
5962;DHT22;3007;50.770;0.250;2022-10-20T10:57:12;18.80;99.90
5962;DHT22;3007;50.770;0.250;2022-10-20T10:59:42;18.80;99.90
5962;DHT22;3007;50.770;0.250;2022-10-20T11:05:43;18.80;99.90
5962;DHT22;3007;50.770;0.250;2022-10-20T11:08:17;18.70;99.90
5962;DHT22;3007;50.770;0.250;2022-10-20T11:10:52;18.70;99.90
5962;DHT22;3007;50.770;0.250;2022-10-20T11:13:29;18.70;99.90
5962;DHT22;3007;50.770;0.250;2022-10-20T11:16:05;18.70;99.90
5962;DHT22;3007;50.770;0.250;2022-10-20T11:21:39;18.70;99.90
5962;DHT22;3007;50.770;0.250;2022-10-20T11:24:36;18.60;99.90
5962;DHT22;3007;50.770;0.250;2022-10-20T11:27:09;18.60;99.90
5962;DHT22;3007;50.770;0.250;2022-10-20T11:29:39;18.70;99.90
5962;DHT22;3007;50.770;0.250;2022-10-20T11:32:15;18.70;99.90
5962;DHT22;3007;50.770;0.250;2022-10-20T11:34:51;18.70;99.90
5962;DHT22;3007;50.770;0.250;2022-10-20T11:37:24;18.80;99.90
5962;DHT22;3007;50.770;0.250;2022-10-20T11:39:56;18.80;99.90
5962;DHT22;3007;50.770;0.250;2022-10-20T11:42:29;18.70;99.90
5962;DHT22;3007;50.770;0.250;2022-10-20T11:44:59;18.70;99.90
5962;DHT22;3007;50.770;0.250;2022-10-20T11:47:30;18.70;99.90
5962;DHT22;3007;50.770;0.250;2022-10-20T11:50:00;18.60;99.90
5962;DHT22;3007;50.770;0.250;2022-10-20T11:52:59;18.60;99.90
5962;DHT22;3007;50.770;0.250;2022-10-20T11:55:41;18.50;99.90
5962;DHT22;3007;50.770;0.250;2022-10-20T12:01:17;18.30;99.90
5962;DHT22;3007;50.770;0.250;2022-10-20T12:06:52;18.20;99.90
5962;DHT22;3007;50.770;0.250;2022-10-20T12:12:29;18.10;99.90
5962;DHT22;3007;50.770;0.250;2022-10-20T12:15:00;18.10;99.90
5962;DHT22;3007;50.770;0.250;2022-10-20T12:17:33;18.10;99.90
5962;DHT22;3007;50.770;0.250;2022-10-20T12:23:01;18.00;99.90
5962;DHT22;3007;50.770;0.250;2022-10-20T12:25:39;18.00;99.90
5962;DHT22;3007;50.770;0.250;2022-10-20T12:28:37;18.00;99.90
5962;DHT22;3007;50.770;0.250;2022-10-20T12:31:06;17.90;99.90
5962;DHT22;3007;50.770;0.250;2022-10-20T12:33:36;17.90;99.90
5962;DHT22;3007;50.770;0.250;2022-10-20T12:39:12;17.80;99.90
5962;DHT22;3007;50.770;0.250;2022-10-20T12:41:44;17.80;99.90
5962;DHT22;3007;50.770;0.250;2022-10-20T12:44:16;17.80;99.90
5962;DHT22;3007;50.770;0.250;2022-10-20T12:46:52;17.70;99.90
5962;DHT22;3007;50.770;0.250;2022-10-20T12:49:24;17.70;99.90
5962;DHT22;3007;50.770;0.250;2022-10-20T12:51:54;17.70;99.90
5962;DHT22;3007;50.770;0.250;2022-10-20T12:54:24;17.70;99.90
5962;DHT22;3007;50.770;0.250;2022-10-20T12:56:57;17.70;99.90
5962;DHT22;3007;50.770;0.250;2022-10-20T12:59:37;17.70;99.90
5962;DHT22;3007;50.770;0.250;2022-10-20T13:02:29;17.60;99.90
5962;DHT22;3007;50.770;0.250;2022-10-20T13:04:58;17.60;99.90
5962;DHT22;3007;50.770;0.250;2022-10-20T13:10:33;17.60;99.90
5962;DHT22;3007;50.770;0.250;2022-10-20T13:16:19;17.50;99.90
5962;DHT22;3007;50.770;0.250;2022-10-20T13:18:48;17.50;99.90
5962;DHT22;3007;50.770;0.250;2022-10-20T13:21:31;17.50;99.90
5962;DHT22;3007;50.770;0.250;2022-10-20T13:24:14;17.50;99.90
5962;DHT22;3007;50.770;0.250;2022-10-20T13:26:50;17.50;99.90
5962;DHT22;3007;50.770;0.250;2022-10-20T13:29:21;17.40;99.90
5962;DHT22;3007;50.770;0.250;2022-10-20T13:32:08;17.40;99.90
5962;DHT22;3007;50.770;0.250;2022-10-20T13:34:41;17.40;99.90
5962;DHT22;3007;50.770;0.250;2022-10-20T13:37:23;17.30;99.90
5962;DHT22;3007;50.770;0.250;2022-10-20T13:40:01;17.30;99.90
5962;DHT22;3007;50.770;0.250;2022-10-20T13:42:40;17.30;99.90
5962;DHT22;3007;50.770;0.250;2022-10-20T13:45:19;17.20;99.90
5962;DHT22;3007;50.770;0.250;2022-10-20T13:47:51;17.20;99.90
5962;DHT22;3007;50.770;0.250;2022-10-20T13:50:22;17.20;99.90
5962;DHT22;3007;50.770;0.250;2022-10-20T13:53:00;17.10;99.90
5962;DHT22;3007;50.770;0.250;2022-10-20T13:55:30;17.10;99.90
5962;DHT22;3007;50.770;0.250;2022-10-20T13:58:20;17.10;99.90
5962;DHT22;3007;50.770;0.250;2022-10-20T14:00:59;17.00;99.90
5962;DHT22;3007;50.770;0.250;2022-10-20T14:03:29;17.00;99.90
5962;DHT22;3007;50.770;0.250;2022-10-20T14:05:56;17.00;99.90
5962;DHT22;3007;50.770;0.250;2022-10-20T14:08:24;16.90;99.90
5962;DHT22;3007;50.770;0.250;2022-10-20T14:10:53;16.90;99.90
5962;DHT22;3007;50.770;0.250;2022-10-20T14:13:23;17.00;99.90
5962;DHT22;3007;50.770;0.250;2022-10-20T14:15:52;17.00;99.90
5962;DHT22;3007;50.770;0.250;2022-10-20T14:18:22;17.00;99.90
5962;DHT22;3007;50.770;0.250;2022-10-20T14:20:56;17.00;99.90
5962;DHT22;3007;50.770;0.250;2022-10-20T14:23:28;17.00;99.90
5962;DHT22;3007;50.770;0.250;2022-10-20T14:25:56;16.90;99.90
5962;DHT22;3007;50.770;0.250;2022-10-20T14:28:25;16.90;99.90
5962;DHT22;3007;50.770;0.250;2022-10-20T14:30:53;16.80;99.90
5962;DHT22;3007;50.770;0.250;2022-10-20T14:33:21;16.90;99.90
5962;DHT22;3007;50.770;0.250;2022-10-20T14:35:50;16.80;99.90
5962;DHT22;3007;50.770;0.250;2022-10-20T14:38:22;16.70;99.90
5962;DHT22;3007;50.770;0.250;2022-10-20T14:40:52;16.70;99.90
5962;DHT22;3007;50.770;0.250;2022-10-20T14:43:22;16.80;99.90
5962;DHT22;3007;50.770;0.250;2022-10-20T14:45:54;16.70;99.90
5962;DHT22;3007;50.770;0.250;2022-10-20T14:48:22;16.70;99.90
5962;DHT22;3007;50.770;0.250;2022-10-20T14:50:50;16.60;99.90
5962;DHT22;3007;50.770;0.250;2022-10-20T14:53:28;16.50;99.90
5962;DHT22;3007;50.770;0.250;2022-10-20T14:55:57;16.60;99.90
5962;DHT22;3007;50.770;0.250;2022-10-20T14:58:30;16.60;99.90
5962;DHT22;3007;50.770;0.250;2022-10-20T15:01:23;16.50;99.90
5962;DHT22;3007;50.770;0.250;2022-10-20T15:04:04;16.50;99.90
5962;DHT22;3007;50.770;0.250;2022-10-20T15:06:31;16.50;99.90
5962;DHT22;3007;50.770;0.250;2022-10-20T15:08:59;16.40;99.90
5962;DHT22;3007;50.770;0.250;2022-10-20T15:11:27;16.50;99.90
5962;DHT22;3007;50.770;0.250;2022-10-20T15:13:56;16.50;99.90
5962;DHT22;3007;50.770;0.250;2022-10-20T15:16:33;16.70;99.90
5962;DHT22;3007;50.770;0.250;2022-10-20T15:22:00;16.90;99.90
5962;DHT22;3007;50.770;0.250;2022-10-20T15:24:29;16.90;99.90
5962;DHT22;3007;50.770;0.250;2022-10-20T15:26:56;16.90;99.90
5962;DHT22;3007;50.770;0.250;2022-10-20T15:29:25;16.80;99.90
5962;DHT22;3007;50.770;0.250;2022-10-20T15:31:52;16.70;99.90
5962;DHT22;3007;50.770;0.250;2022-10-20T15:34:19;16.60;99.90
5962;DHT22;3007;50.770;0.250;2022-10-20T15:36:46;16.50;99.90
5962;DHT22;3007;50.770;0.250;2022-10-20T15:39:13;16.50;99.90
5962;DHT22;3007;50.770;0.250;2022-10-20T15:41:42;16.40;99.90
5962;DHT22;3007;50.770;0.250;2022-10-20T15:44:14;16.40;99.90
5962;DHT22;3007;50.770;0.250;2022-10-20T15:46:42;16.30;99.90
5962;DHT22;3007;50.770;0.250;2022-10-20T15:49:11;16.20;99.90
5962;DHT22;3007;50.770;0.250;2022-10-20T15:51:40;16.20;99.90
5962;DHT22;3007;50.770;0.250;2022-10-20T15:54:09;16.10;99.90
5962;DHT22;3007;50.770;0.250;2022-10-20T15:56:36;16.00;99.90
5962;DHT22;3007;50.770;0.250;2022-10-20T15:59:05;16.00;99.90
5962;DHT22;3007;50.770;0.250;2022-10-20T16:01:32;16.00;99.90
5962;DHT22;3007;50.770;0.250;2022-10-20T16:04:00;15.90;99.90
5962;DHT22;3007;50.770;0.250;2022-10-20T16:06:27;15.80;99.90
5962;DHT22;3007;50.770;0.250;2022-10-20T16:08:54;15.80;99.90
5962;DHT22;3007;50.770;0.250;2022-10-20T16:11:21;15.80;99.90
5962;DHT22;3007;50.770;0.250;2022-10-20T16:13:48;15.80;99.90
5962;DHT22;3007;50.770;0.250;2022-10-20T16:16:18;15.80;99.90
5962;DHT22;3007;50.770;0.250;2022-10-20T16:18:45;15.70;99.90
5962;DHT22;3007;50.770;0.250;2022-10-20T16:21:12;15.70;99.90
5962;DHT22;3007;50.770;0.250;2022-10-20T16:23:39;15.60;99.90
5962;DHT22;3007;50.770;0.250;2022-10-20T16:26:07;15.50;99.90
5962;DHT22;3007;50.770;0.250;2022-10-20T16:28:35;15.50;99.90
5962;DHT22;3007;50.770;0.250;2022-10-20T16:31:04;15.40;99.90
5962;DHT22;3007;50.770;0.250;2022-10-20T16:33:33;15.40;99.90
5962;DHT22;3007;50.770;0.250;2022-10-20T16:36:04;15.30;99.90
5962;DHT22;3007;50.770;0.250;2022-10-20T16:38:39;15.20;99.90
5962;DHT22;3007;50.770;0.250;2022-10-20T16:41:08;15.10;99.90
5962;DHT22;3007;50.770;0.250;2022-10-20T16:43:36;15.00;99.90
5962;DHT22;3007;50.770;0.250;2022-10-20T16:46:04;14.90;99.90
5962;DHT22;3007;50.770;0.250;2022-10-20T16:48:33;14.80;99.90
5962;DHT22;3007;50.770;0.250;2022-10-20T16:51:03;14.80;99.90
5962;DHT22;3007;50.770;0.250;2022-10-20T16:53:30;14.70;99.90